Terminal Aerodrome Forecast
Issued by NWS

Home | Current Version | Previous Version | Text Only | Print | Product List | Glossary On
Versions: 1 2 3 4 5 6 7 8 9 10 11 12 13 14 15 16 17 18 19 20 21
000
FTUS43 KPAH 231120
TAFOWB
TAF
KOWB 231120Z 2312/2412 09012G20KT 6SM -SHRA BR OVC015
     FM231700 11012G18KT P6SM VCSH OVC025
     FM232300 10010KT 5SM -SHRA BR OVC015
     FM240900 35006KT 4SM BR VCSH OVC010=

USA.gov is the U.S. government's official web portal to all federal, state and local government web resources and services.